This is the latest recevied weather packets stored in our database for station/object OE-11361. If no packets are shown the sender has not sent any weather packets the latest 10 day(s).
| Time | Temp. | Humidity | Pressure | Rain* | Wind** | Luminosity | Snow |
|---|---|---|---|---|---|---|---|
| 1787677877 | 16.67° C | 97% | 1015.9 hPa | 0.51 mm | - | 14 W/m² | - |
| 1787677504 | 16.67° C | 96% | 1015.9 hPa | 0.25 mm | - | 14 W/m² | - |
| 1787676903 | 16.67° C | 96% | 1015.8 hPa | 0.25 mm | - | 7 W/m² | - |
| 1787676077 | 16.67° C | 95% | 1015.6 hPa | 0 mm | - | 7 W/m² | - |
| 1787675703 | 16.67° C | 96% | 1015.4 hPa | 0 mm | - | 7 W/m² | - |
| 1787675103 | 16.67° C | 96% | 1015.4 hPa | 0 mm | - | 7 W/m² | - |
| 1787674277 | 16.67° C | 95% | 1015.3 hPa | 0 mm | - | 14 W/m² | - |
| 1787673904 | 16.67° C | 95% | 1015.2 hPa | 0 mm | - | 21 W/m² | - |
| 1787673304 | 16.67° C | 95% | 1015.1 hPa | 0 mm | - | 21 W/m² | - |
| 1787672477 | 16.67° C | 95% | 1015 hPa | 0 mm | - | 21 W/m² | - |
| 1787672104 | 16.67° C | 96% | 1015 hPa | 0 mm | - | 21 W/m² | - |
| 1787671504 | 16.67° C | 95% | 1015 hPa | 0 mm | - | 34 W/m² | - |
| 1787670677 | 16.67° C | 96% | 1015 hPa | 0 mm | - | 34 W/m² | - |
| 1787670303 | 16.67° C | 96% | 1014.9 hPa | 0 mm | - | 28 W/m² | - |
| 1787669704 | 16.67° C | 95% | 1014.8 hPa | 0.25 mm | - | 28 W/m² | - |
| 1787668877 | 16.67° C | 94% | 1014.6 hPa | 0.51 mm | - | 28 W/m² | - |
| 1787668504 | 16.67° C | 93% | 1014.7 hPa | 0.76 mm | - | 28 W/m² | - |
| 1787667903 | 16.67° C | 91% | 1014.6 hPa | 1.02 mm | - | 48 W/m² | - |
| 1787667076 | 16.67° C | 88% | 1014.4 hPa | 1.27 mm | - | 69 W/m² | - |
| 1787666704 | 16.67° C | 85% | 1014.2 hPa | 1.52 mm | - | 83 W/m² | - |
| 1787666104 | 16.67° C | 90% | 1014.2 hPa | 1.78 mm | - | 55 W/m² | - |
| 1787665277 | 16.67° C | 92% | 1014.1 hPa | 1.78 mm | - | 62 W/m² | - |
| 1787664904 | 16.67° C | 92% | 1014.1 hPa | 1.52 mm | - | 69 W/m² | - |
| 1787664304 | 16.67° C | 88% | 1014 hPa | 1.02 mm | - | 62 W/m² | - |
| 1787663477 | 17.22° C | 88% | 1013.9 hPa | 0.76 mm | - | 69 W/m² | - |
* Rain latest hour (hover to see other rain measurements)
** Current wind speed in m/s (hover to see current wind gust speed)